Al Hillah, Iraq
Current Conditions -  °F | °C
As of 7:00 AM on Saturday 25 Oct 2014 (Local Time) from ORNI Reporting Station
Clear Clear  
Wind Chill: 18°   Ceiling: Unl
Heat Index: 18°   Visibility: 4mi
Dew Point:   Wind: 5mph
Humidity: 56%   Direction: 330°NNW
Pressure: 30"   Gusts: NA
Location:  32.48°N, 44.46°E
Report Text: ORNI 250400Z 33004KT 7000 NSC 18/09 Q1016 NOSIG
Loading
Personal Weather Stations






























Interactive Weather Map
Tropical Storm Tracking
New forecast layout! Learn more

10-Day Weather Forecast

Advertisements
Track Severe Weather on mobile